createdAt,value
2022-11-27T00:00:13.138Z,22.20
2022-11-27T00:03:01.860Z,22.10
2022-11-27T00:05:54.486Z,24.27
2022-11-27T00:08:41.552Z,24.20
2022-11-27T00:11:29.919Z,24.40
2022-11-27T00:14:18.746Z,21.70
2022-11-27T00:17:06.010Z,21.65
2022-11-27T00:19:54.452Z,25.88
2022-11-27T00:22:41.780Z,24.08
2022-11-27T00:25:29.223Z,26.92
2022-11-27T00:28:16.287Z,24.63
2022-11-27T00:31:06.221Z,25.70
2022-11-27T00:33:55.613Z,25.30
2022-11-27T00:36:48.107Z,22.20
2022-11-27T00:39:35.742Z,23.27
2022-11-27T00:42:22.619Z,24.15
2022-11-27T00:45:10.979Z,25.83
2022-11-27T00:47:58.292Z,26.02
2022-11-27T00:50:45.059Z,24.60
2022-11-27T00:53:34.402Z,22.35
2022-11-27T00:56:22.966Z,25.05
2022-11-27T00:59:11.113Z,25.30
2022-11-27T01:01:58.285Z,22.70
2022-11-27T01:04:47.207Z,22.45
2022-11-27T01:07:34.424Z,22.25
2022-11-27T01:10:23.105Z,23.00
2022-11-27T01:13:10.228Z,23.30
2022-11-27T01:16:01.394Z,21.33
2022-11-27T01:18:50.344Z,21.88
2022-11-27T01:21:37.363Z,21.35
2022-11-27T01:24:24.220Z,19.80
2022-11-27T01:27:12.830Z,21.17
2022-11-27T01:30:00.376Z,18.63
2022-11-27T01:32:47.229Z,20.10
2022-11-27T01:35:34.409Z,21.10
2022-11-27T01:38:21.624Z,21.33
2022-11-27T01:41:14.588Z,19.35
2022-11-27T01:44:05.145Z,19.92
2022-11-27T01:46:55.013Z,20.13
2022-11-27T01:49:46.977Z,20.30
2022-11-27T01:52:38.134Z,18.42
2022-11-27T01:55:30.027Z,19.80
2022-11-27T01:58:21.987Z,17.90
2022-11-27T02:01:11.411Z,19.63
2022-11-27T02:04:02.087Z,16.63
2022-11-27T02:06:49.127Z,17.25
2022-11-27T02:09:36.521Z,17.73
2022-11-27T02:12:26.626Z,19.35
2022-11-27T02:15:21.324Z,20.30
2022-11-27T02:18:17.011Z,19.77
2022-11-27T02:21:09.091Z,20.50
2022-11-27T02:24:33.845Z,21.05
2022-11-27T02:27:43.810Z,20.65
2022-11-27T02:30:37.882Z,21.38
2022-11-27T02:33:26.216Z,20.30
2022-11-27T02:36:19.265Z,24.33
2022-11-27T02:39:10.602Z,22.88
2022-11-27T02:42:06.699Z,21.85
2022-11-27T02:44:59.755Z,20.45
2022-11-27T02:47:50.209Z,21.90
2022-11-27T02:50:40.155Z,22.33
2022-11-27T02:53:32.173Z,26.35
2022-11-27T02:56:23.528Z,28.75
2022-11-27T02:59:14.976Z,25.90
2022-11-27T03:02:12.765Z,23.77
2022-11-27T03:05:04.115Z,22.00
2022-11-27T03:07:55.361Z,21.40
2022-11-27T03:10:52.064Z,21.13
2022-11-27T03:13:42.524Z,21.88
2022-11-27T03:16:36.793Z,20.52
2022-11-27T03:19:29.628Z,21.42
2022-11-27T03:22:18.464Z,20.73
2022-11-27T03:25:06.048Z,24.52
2022-11-27T03:27:58.452Z,23.92
2022-11-27T03:30:45.359Z,23.30
2022-11-27T03:33:32.661Z,22.02
2022-11-27T03:36:21.516Z,20.50
2022-11-27T03:39:10.585Z,21.35
2022-11-27T03:42:06.971Z,22.02
2022-11-27T03:45:01.041Z,21.95
2022-11-27T03:47:59.997Z,21.15
2022-11-27T03:51:01.398Z,24.52
2022-11-27T03:53:56.796Z,20.92
2022-11-27T03:56:50.224Z,21.75
2022-11-27T03:59:40.618Z,23.77
2022-11-27T04:02:32.390Z,21.50
2022-11-27T04:05:20.480Z,20.40
2022-11-27T04:08:07.839Z,21.42
2022-11-27T04:10:54.939Z,24.65
2022-11-27T04:13:43.639Z,19.60
2022-11-27T04:16:30.765Z,20.98
2022-11-27T04:19:17.528Z,22.42
2022-11-27T04:22:04.535Z,24.05
2022-11-27T04:24:51.379Z,20.02
2022-11-27T04:27:38.281Z,20.13
2022-11-27T04:30:27.075Z,21.15
2022-11-27T04:33:14.090Z,23.45
2022-11-27T04:36:01.145Z,19.95
2022-11-27T04:38:48.363Z,25.30
2022-11-27T04:41:35.674Z,23.02
2022-11-27T04:44:22.995Z,21.85
2022-11-27T04:47:11.437Z,22.75
2022-11-27T04:49:58.767Z,22.83
2022-11-27T04:52:46.081Z,20.88
2022-11-27T04:55:32.969Z,24.88
2022-11-27T04:58:20.227Z,25.83
2022-11-27T05:01:08.872Z,25.48
2022-11-27T05:03:57.210Z,25.00
2022-11-27T05:06:44.318Z,24.58
2022-11-27T05:09:31.373Z,26.27
2022-11-27T05:12:18.612Z,24.13
2022-11-27T05:15:06.120Z,24.52
2022-11-27T05:17:52.989Z,23.65
2022-11-27T05:20:41.503Z,24.70
2022-11-27T05:23:29.321Z,23.80
2022-11-27T05:26:16.019Z,22.52
2022-11-27T05:29:04.122Z,20.45
2022-11-27T05:31:51.501Z,21.75
2022-11-27T05:34:38.424Z,21.75
2022-11-27T05:37:26.943Z,23.52
2022-11-27T05:40:14.876Z,22.55
2022-11-27T05:43:02.135Z,19.98
2022-11-27T05:45:48.887Z,24.42
2022-11-27T05:48:36.524Z,23.50
2022-11-27T05:51:23.751Z,20.00
2022-11-27T05:54:12.323Z,23.20
2022-11-27T05:56:59.175Z,23.08
2022-11-27T05:59:46.387Z,20.67
2022-11-27T06:02:33.813Z,22.48
2022-11-27T06:05:21.021Z,22.05
2022-11-27T06:08:08.393Z,23.10
2022-11-27T06:10:56.627Z,23.90
2022-11-27T06:13:43.795Z,21.13
2022-11-27T06:16:30.684Z,23.15
2022-11-27T06:19:17.876Z,20.92
2022-11-27T06:22:04.996Z,20.17
2022-11-27T06:24:52.252Z,20.48
2022-11-27T06:27:40.779Z,19.08
2022-11-27T06:30:27.815Z,18.77
2022-11-27T06:33:14.588Z,19.55
2022-11-27T06:36:01.667Z,21.48
2022-11-27T06:38:49.045Z,23.70
2022-11-27T06:41:36.272Z,24.70
2022-11-27T06:44:24.827Z,21.20
2022-11-27T06:47:11.986Z,24.55
2022-11-27T06:49:59.227Z,20.27
2022-11-27T06:52:46.368Z,23.67
2022-11-27T06:55:33.465Z,23.42
2022-11-27T06:58:20.704Z,22.58
2022-11-27T07:01:11.464Z,19.95
2022-11-27T07:03:59.170Z,20.15
2022-11-27T07:06:45.996Z,18.23
2022-11-27T07:09:33.160Z,20.40
2022-11-27T07:12:20.430Z,19.55
2022-11-27T07:15:08.616Z,19.58
2022-11-27T07:17:57.199Z,22.17
2022-11-27T07:20:44.072Z,24.40
2022-11-27T07:23:31.197Z,22.42
2022-11-27T07:26:20.683Z,25.45
2022-11-27T07:29:07.814Z,25.75
2022-11-27T07:31:55.262Z,22.05
2022-11-27T07:34:43.455Z,25.80
2022-11-27T07:37:32.495Z,24.42
2022-11-27T07:40:19.864Z,27.50
2022-11-27T07:43:07.064Z,25.75
2022-11-27T07:45:53.956Z,23.70
2022-11-27T07:48:40.986Z,22.27
2022-11-27T07:51:29.564Z,22.65
2022-11-27T07:54:16.701Z,20.90
2022-11-27T07:57:03.909Z,22.60
2022-11-27T07:59:51.090Z,21.48
2022-11-27T08:02:38.298Z,21.02
2022-11-27T08:05:25.524Z,18.95
2022-11-27T08:08:13.750Z,20.05
2022-11-27T08:11:00.740Z,19.52
2022-11-27T08:13:48.299Z,21.92
2022-11-27T08:16:36.612Z,21.52
2022-11-27T08:19:23.705Z,23.02
2022-11-27T08:22:13.433Z,23.10
2022-11-27T08:25:02.015Z,20.27
2022-11-27T08:27:49.324Z,22.55
2022-11-27T08:30:36.295Z,20.73
2022-11-27T08:33:23.213Z,21.10
2022-11-27T08:36:16.385Z,19.83
2022-11-27T08:39:05.872Z,18.85
2022-11-27T08:41:54.290Z,19.85
2022-11-27T08:44:41.470Z,18.42
2022-11-27T08:47:28.693Z,18.90
2022-11-27T08:50:15.887Z,20.00
2022-11-27T08:53:03.011Z,18.80
2022-11-27T08:55:50.253Z,18.73
2022-11-27T08:58:41.130Z,16.83
2022-11-27T09:01:30.239Z,18.42
2022-11-27T09:04:17.314Z,16.50
2022-11-27T09:07:04.188Z,18.30
2022-11-27T09:09:51.338Z,17.13
2022-11-27T09:12:43.242Z,16.88
2022-11-27T09:15:32.233Z,18.33
2022-11-27T09:18:18.990Z,18.73
2022-11-27T09:21:08.692Z,18.55
2022-11-27T09:23:56.679Z,17.65
2022-11-27T09:26:44.822Z,19.45
2022-11-27T09:29:31.967Z,19.67
2022-11-27T09:32:20.525Z,16.98
2022-11-27T09:35:08.018Z,18.55
2022-11-27T09:37:54.790Z,17.70
2022-11-27T09:40:45.715Z,16.13
2022-11-27T09:43:37.442Z,15.13
2022-11-27T09:46:31.269Z,17.77
2022-11-27T09:49:25.799Z,16.05
2022-11-27T09:52:18.932Z,17.35
2022-11-27T09:55:15.821Z,15.95
2022-11-27T09:58:07.407Z,16.10
2022-11-27T10:00:54.620Z,16.90
2022-11-27T10:03:43.577Z,15.80
2022-11-27T10:06:37.737Z,16.15
2022-11-27T10:09:34.538Z,19.63
2022-11-27T10:12:32.134Z,18.17
2022-11-27T10:15:28.482Z,17.95
2022-11-27T10:18:24.242Z,18.65
2022-11-27T10:21:16.551Z,18.80
2022-11-27T10:24:15.168Z,17.98
2022-11-27T10:27:03.384Z,17.02
2022-11-27T10:29:54.703Z,17.48
2022-11-27T10:32:57.909Z,15.15
2022-11-27T10:35:47.870Z,14.68
2022-11-27T10:38:40.637Z,15.52
2022-11-27T10:41:49.268Z,17.70
2022-11-27T10:44:43.160Z,14.52
2022-11-27T10:47:33.630Z,14.23
2022-11-27T10:50:21.791Z,15.43
2022-11-27T10:53:11.760Z,15.15
2022-11-27T10:56:46.407Z,15.07
2022-11-27T10:59:40.846Z,15.75
2022-11-27T11:02:29.974Z,15.25
2022-11-27T11:05:37.717Z,13.85
2022-11-27T11:08:33.388Z,14.02
2022-11-27T11:11:27.855Z,14.13
2022-11-27T11:14:19.685Z,14.60
2022-11-27T11:17:18.327Z,14.75
2022-11-27T11:20:21.401Z,15.90
2022-11-27T11:23:08.503Z,15.45
2022-11-27T11:25:59.602Z,14.85
2022-11-27T11:28:51.911Z,13.82
2022-11-27T11:31:41.067Z,13.27
2022-11-27T11:34:31.421Z,15.23
2022-11-27T11:37:23.941Z,15.77
2022-11-27T11:40:23.235Z,14.70
2022-11-27T11:43:26.095Z,16.05
2022-11-27T11:46:20.886Z,15.85
2022-11-27T11:49:17.031Z,14.65
2022-11-27T11:52:21.861Z,14.23
2022-11-27T11:55:17.880Z,12.77
2022-11-27T11:58:25.757Z,13.40
2022-11-27T12:01:27.740Z,14.80
2022-11-27T12:04:41.753Z,13.13
2022-11-27T12:07:52.051Z,12.75
2022-11-27T12:10:50.420Z,11.30
2022-11-27T12:14:02.721Z,11.88
2022-11-27T12:17:04.614Z,11.65
2022-11-27T12:20:05.346Z,12.43
2022-11-27T12:23:17.955Z,11.55
2022-11-27T12:26:13.335Z,12.88
2022-11-27T12:29:25.053Z,13.25
2022-11-27T12:32:35.797Z,12.27
2022-11-27T12:35:33.516Z,14.23
2022-11-27T12:38:47.891Z,13.00
2022-11-27T12:41:52.025Z,14.73
2022-11-27T12:44:47.962Z,14.88
2022-11-27T12:47:42.114Z,14.27
2022-11-27T12:50:36.023Z,14.75
2022-11-27T12:53:26.828Z,14.50
2022-11-27T12:56:22.092Z,15.18
2022-11-27T12:59:17.720Z,16.88
2022-11-27T13:02:15.178Z,16.60
2022-11-27T13:05:07.060Z,17.33
2022-11-27T13:07:58.909Z,16.88
2022-11-27T13:10:51.867Z,15.95
2022-11-27T13:13:44.542Z,16.00
2022-11-27T13:16:36.115Z,16.35
2022-11-27T13:19:28.416Z,15.68
2022-11-27T13:22:21.574Z,15.15
2022-11-27T13:25:14.340Z,16.63
2022-11-27T13:28:04.199Z,15.48
2022-11-27T13:30:55.347Z,16.75
2022-11-27T13:33:45.126Z,18.05
2022-11-27T13:36:38.356Z,20.10
2022-11-27T13:39:29.511Z,15.23
2022-11-27T13:42:21.279Z,16.23
2022-11-27T13:45:11.476Z,16.98
2022-11-27T13:48:02.597Z,16.20
2022-11-27T13:50:55.411Z,17.30
2022-11-27T13:53:43.659Z,15.80
2022-11-27T13:56:32.265Z,15.88
2022-11-27T13:59:21.697Z,17.40
2022-11-27T14:02:09.977Z,16.98
2022-11-27T14:04:58.441Z,14.30
2022-11-27T14:07:48.662Z,17.48
2022-11-27T14:10:35.741Z,16.75
2022-11-27T14:13:27.611Z,15.85
2022-11-27T14:16:27.402Z,15.23
2022-11-27T14:19:34.386Z,15.75
2022-11-27T14:25:25.201Z,16.30
2022-11-27T14:28:17.918Z,17.15
2022-11-27T14:31:06.259Z,16.27
2022-11-27T14:34:14.114Z,15.57
2022-11-27T14:37:00.410Z,16.02
2022-11-27T14:39:49.030Z,17.00
2022-11-27T14:42:39.219Z,19.58
2022-11-27T14:45:26.819Z,16.85
2022-11-27T14:48:20.590Z,17.65
2022-11-27T14:51:07.769Z,16.77
2022-11-27T14:53:59.908Z,16.20
2022-11-27T14:56:48.378Z,18.73
2022-11-27T14:59:35.605Z,17.40
2022-11-27T15:02:29.349Z,18.25
2022-11-27T15:05:20.101Z,17.73
2022-11-27T15:08:11.397Z,17.75
2022-11-27T15:11:00.520Z,15.10
2022-11-27T15:13:55.424Z,16.50
2022-11-27T15:16:47.633Z,15.10
2022-11-27T15:19:38.598Z,16.77
2022-11-27T15:22:26.148Z,15.50
2022-11-27T15:25:37.858Z,16.00
2022-11-27T15:28:30.509Z,19.20
2022-11-27T15:31:32.708Z,18.17
2022-11-27T15:34:24.603Z,17.23
2022-11-27T15:37:23.166Z,16.40
2022-11-27T15:40:26.415Z,16.73
2022-11-27T15:43:15.372Z,16.30
2022-11-27T15:46:08.537Z,17.38
2022-11-27T15:48:57.188Z,18.25
2022-11-27T15:51:44.318Z,16.38
2022-11-27T15:54:31.585Z,18.25
2022-11-27T15:57:19.166Z,18.33
2022-11-27T16:00:10.001Z,19.60
2022-11-27T16:03:00.309Z,21.90
2022-11-27T16:05:49.093Z,21.40
2022-11-27T16:08:37.190Z,21.27
2022-11-27T16:11:24.771Z,21.38
2022-11-27T16:14:12.095Z,21.50
2022-11-27T16:17:00.552Z,20.55
2022-11-27T16:19:47.721Z,21.08
2022-11-27T16:22:36.525Z,25.08
2022-11-27T16:25:25.249Z,23.50
2022-11-27T16:28:12.159Z,22.30
2022-11-27T16:31:01.073Z,22.05
2022-11-27T16:33:48.229Z,23.73
2022-11-27T16:36:36.227Z,25.10
2022-11-27T16:39:24.697Z,24.02
2022-11-27T16:42:11.531Z,23.63
2022-11-27T16:44:58.590Z,25.38
2022-11-27T16:47:46.663Z,24.48
2022-11-27T16:50:33.714Z,26.25
2022-11-27T16:53:21.328Z,22.73
2022-11-27T16:56:10.881Z,21.80
2022-11-27T16:59:03.021Z,22.25
2022-11-27T17:01:51.637Z,21.65
2022-11-27T17:04:39.391Z,20.38
2022-11-27T17:07:26.617Z,19.90
2022-11-27T17:10:14.110Z,19.65
2022-11-27T17:13:02.531Z,17.73
2022-11-27T17:15:49.649Z,17.77
2022-11-27T17:18:38.534Z,20.40
2022-11-27T17:21:29.952Z,18.40
2022-11-27T17:24:18.367Z,19.20
2022-11-27T17:27:05.526Z,18.92
2022-11-27T17:29:54.682Z,16.45
2022-11-27T17:32:41.641Z,18.83
2022-11-27T17:35:30.604Z,18.98
2022-11-27T17:38:17.758Z,17.42
2022-11-27T17:41:06.527Z,16.95
2022-11-27T17:43:53.915Z,16.85
2022-11-27T17:46:45.031Z,18.42
2022-11-27T17:49:33.155Z,16.52
2022-11-27T17:52:20.506Z,17.98
2022-11-27T17:55:08.594Z,19.00
2022-11-27T17:57:55.881Z,20.35
2022-11-27T18:00:44.988Z,18.63
2022-11-27T18:03:34.537Z,20.20
2022-11-27T18:06:23.064Z,18.88
2022-11-27T18:09:11.264Z,19.95
2022-11-27T18:11:58.426Z,22.23
2022-11-27T18:14:45.595Z,21.25
2022-11-27T18:17:32.495Z,22.98
2022-11-27T18:20:20.919Z,24.50
2022-11-27T18:23:07.967Z,24.08
2022-11-27T18:25:55.182Z,23.52
2022-11-27T18:28:42.606Z,22.92
2022-11-27T18:31:30.154Z,26.00
2022-11-27T18:34:16.899Z,24.98
2022-11-27T18:37:05.906Z,26.48
2022-11-27T18:39:53.122Z,30.48
2022-11-27T18:42:40.192Z,29.67
2022-11-27T18:45:33.777Z,26.75
2022-11-27T18:48:22.908Z,32.40
2022-11-27T18:51:12.978Z,32.67
2022-11-27T18:54:02.296Z,26.45
2022-11-27T18:56:49.264Z,27.58
2022-11-27T18:59:36.438Z,27.70
2022-11-27T19:02:23.600Z,30.75
2022-11-27T19:05:10.978Z,28.42
2022-11-27T19:07:59.705Z,31.20
2022-11-27T19:10:48.006Z,31.85
2022-11-27T19:13:35.063Z,31.05
2022-11-27T19:16:24.188Z,30.63
2022-11-27T19:19:49.283Z,28.90
2022-11-27T19:22:21.124Z,26.58
2022-11-27T19:25:08.956Z,26.08
2022-11-27T19:27:57.237Z,23.77
2022-11-27T19:30:44.952Z,25.73
2022-11-27T19:33:32.544Z,25.52
2022-11-27T19:36:19.753Z,27.00
2022-11-27T19:39:09.245Z,25.02
2022-11-27T19:41:58.249Z,24.13
2022-11-27T19:44:47.146Z,25.38
2022-11-27T19:47:34.317Z,23.75
2022-11-27T19:50:21.604Z,23.25
2022-11-27T19:53:08.507Z,22.17
2022-11-27T19:55:56.058Z,27.98
2022-11-27T19:58:43.772Z,23.05
2022-11-27T20:01:33.256Z,24.65
2022-11-27T20:04:20.341Z,23.60
2022-11-27T20:07:08.312Z,23.58
2022-11-27T20:09:56.298Z,23.73
2022-11-27T20:12:43.640Z,24.05
2022-11-27T20:15:30.930Z,24.05
2022-11-27T20:18:20.653Z,27.23
2022-11-27T20:21:09.686Z,25.05
2022-11-27T20:23:56.988Z,25.70
2022-11-27T20:26:44.108Z,25.70
2022-11-27T20:29:32.279Z,25.48
2022-11-27T20:32:19.461Z,28.58
2022-11-27T20:35:09.030Z,23.38
2022-11-27T20:37:56.042Z,27.98
2022-11-27T20:40:43.120Z,24.67
2022-11-27T20:43:30.627Z,27.85
2022-11-27T20:46:18.102Z,26.17
2022-11-27T20:49:05.794Z,31.63
2022-11-27T20:51:55.372Z,29.90
2022-11-27T20:54:43.137Z,29.95
2022-11-27T20:57:30.403Z,30.48
2022-11-27T21:00:17.871Z,26.98
2022-11-27T21:03:05.127Z,27.17
2022-11-27T21:05:52.403Z,26.65
2022-11-27T21:08:41.098Z,26.10
2022-11-27T21:11:29.870Z,27.52
2022-11-27T21:14:18.608Z,28.85
2022-11-27T21:17:05.669Z,27.67
2022-11-27T21:19:54.430Z,26.85
2022-11-27T21:22:44.022Z,26.55
2022-11-27T21:25:32.979Z,24.58
2022-11-27T21:28:19.874Z,26.75
2022-11-27T21:31:11.050Z,26.40
2022-11-27T21:33:59.881Z,24.73
2022-11-27T21:36:48.014Z,25.73
2022-11-27T21:39:35.953Z,23.92
2022-11-27T21:42:25.949Z,26.50
2022-11-27T21:45:12.918Z,24.45
2022-11-27T21:48:00.311Z,23.23
2022-11-27T21:50:47.277Z,25.67
2022-11-27T21:53:35.008Z,23.70
2022-11-27T21:56:27.379Z,24.92
2022-11-27T21:59:16.606Z,23.80
2022-11-27T22:02:03.873Z,23.48
2022-11-27T22:04:51.098Z,25.48
2022-11-27T22:07:38.395Z,28.08
2022-11-27T22:10:25.310Z,26.60
2022-11-27T22:13:12.676Z,25.50
2022-11-27T22:16:01.228Z,26.95
2022-11-27T22:18:49.069Z,29.10
2022-11-27T22:21:35.811Z,27.90
2022-11-27T22:24:22.946Z,30.17
2022-11-27T22:27:12.736Z,29.83
2022-11-27T22:30:00.007Z,29.25
2022-11-27T22:32:49.267Z,30.98
2022-11-27T22:35:36.381Z,30.88
2022-11-27T22:38:23.332Z,30.02
2022-11-27T22:41:11.283Z,30.00
2022-11-27T22:44:00.315Z,29.08
2022-11-27T22:46:48.407Z,31.13
2022-11-27T22:49:37.387Z,30.48
2022-11-27T22:52:25.104Z,27.73
2022-11-27T22:55:13.028Z,29.95
2022-11-27T22:58:00.328Z,31.40
2022-11-27T23:00:48.014Z,27.55
2022-11-27T23:03:35.515Z,29.95
2022-11-27T23:06:24.743Z,29.38
2022-11-27T23:09:12.197Z,28.95
2022-11-27T23:11:59.347Z,29.20
2022-11-27T23:14:46.302Z,30.50
2022-11-27T23:17:33.428Z,32.42
2022-11-27T23:20:20.646Z,31.90
2022-11-27T23:23:08.958Z,29.42
2022-11-27T23:25:56.323Z,29.33
2022-11-27T23:28:44.859Z,30.33
2022-11-27T23:31:35.249Z,28.83
2022-11-27T23:34:22.205Z,33.08
2022-11-27T23:37:09.372Z,30.38
2022-11-27T23:39:57.841Z,33.10
2022-11-27T23:42:44.798Z,30.88
2022-11-27T23:45:32.114Z,30.08
2022-11-27T23:48:19.175Z,32.47
2022-11-27T23:51:09.019Z,32.00
2022-11-27T23:53:56.392Z,31.75
2022-11-27T23:56:44.794Z,32.63
2022-11-27T23:59:31.833Z,33.30
